createdAt,value
2018-09-28T00:04:24.325Z,22.24
2018-09-28T00:09:27.600Z,22.20
2018-09-28T00:14:30.871Z,22.18
2018-09-28T00:19:34.131Z,22.16
2018-09-28T00:24:37.608Z,22.13
2018-09-28T00:29:40.865Z,22.08
2018-09-28T00:34:44.139Z,22.07
2018-09-28T00:39:47.457Z,22.03
2018-09-28T00:44:50.712Z,21.99
2018-09-28T00:49:53.991Z,21.96
2018-09-28T00:54:57.280Z,21.92
2018-09-28T01:00:00.548Z,21.91
2018-09-28T01:05:04.104Z,21.83
2018-09-28T01:10:07.373Z,21.85
2018-09-28T01:15:10.641Z,21.84
2018-09-28T01:20:13.908Z,21.82
2018-09-28T01:25:17.174Z,21.78
2018-09-28T01:30:20.472Z,21.76
2018-09-28T01:35:23.732Z,21.76
2018-09-28T01:40:27.045Z,21.74
2018-09-28T01:45:30.316Z,21.70
2018-09-28T01:50:33.586Z,21.65
2018-09-28T01:55:36.899Z,21.68
2018-09-28T02:00:40.160Z,21.66
2018-09-28T02:05:43.415Z,21.67
2018-09-28T02:10:46.688Z,21.62
2018-09-28T02:15:49.984Z,21.60
2018-09-28T02:20:53.268Z,21.58
2018-09-28T02:25:56.553Z,21.55
2018-09-28T02:30:59.825Z,21.55
2018-09-28T02:36:03.114Z,21.56
2018-09-28T02:41:06.568Z,21.50
2018-09-28T02:46:09.831Z,21.50
2018-09-28T02:51:13.120Z,21.48
2018-09-28T02:56:16.384Z,21.47
2018-09-28T03:01:19.733Z,21.47
2018-09-28T03:06:23.275Z,21.45
2018-09-28T03:11:26.468Z,21.42
2018-09-28T03:16:29.746Z,21.44
2018-09-28T03:21:33.008Z,21.43
2018-09-28T03:26:36.308Z,21.38
2018-09-28T03:31:39.572Z,21.36
2018-09-28T03:36:42.849Z,21.33
2018-09-28T03:41:46.113Z,21.30
2018-09-28T03:46:49.549Z,21.27
2018-09-28T03:51:52.816Z,21.29
2018-09-28T03:56:56.076Z,21.26
2018-09-28T04:01:59.373Z,21.31
2018-09-28T04:07:02.637Z,21.26
2018-09-28T04:12:05.903Z,21.27
2018-09-28T04:17:09.226Z,21.08
2018-09-28T04:22:12.544Z,20.86
2018-09-28T04:27:15.841Z,20.83
2018-09-28T04:32:19.109Z,20.82
2018-09-28T04:37:22.372Z,20.76
2018-09-28T04:42:25.640Z,20.73
2018-09-28T04:47:28.908Z,20.77
2018-09-28T04:52:32.213Z,20.70
2018-09-28T04:57:35.476Z,20.72
2018-09-28T05:02:38.749Z,20.67
2018-09-28T05:07:42.027Z,20.61
2018-09-28T05:12:45.556Z,20.59
2018-09-28T05:17:48.825Z,20.53
2018-09-28T05:22:52.303Z,20.61
2018-09-28T05:27:55.647Z,20.56
2018-09-28T05:32:59.164Z,20.52
2018-09-28T05:38:02.277Z,20.50
2018-09-28T05:43:05.576Z,20.46
2018-09-28T05:48:08.849Z,20.42
2018-09-28T05:53:12.136Z,20.39
2018-09-28T05:58:20.907Z,20.43
2018-09-28T06:03:24.192Z,20.43
2018-09-28T06:08:27.456Z,20.41
2018-09-28T06:13:30.727Z,20.38
2018-09-28T06:18:35.788Z,20.40
2018-09-28T06:23:39.145Z,20.43
2018-09-28T06:28:42.413Z,20.43
2018-09-28T06:33:45.680Z,20.60
2018-09-28T06:38:49.258Z,19.88
2018-09-28T06:43:52.803Z,19.68
2018-09-28T06:48:56.256Z,20.55
2018-09-28T06:53:59.716Z,20.82
2018-09-28T06:59:03.056Z,20.94
2018-09-28T07:04:06.348Z,21.01
2018-09-28T07:09:11.687Z,21.08
2018-09-28T07:14:14.963Z,21.13
2018-09-28T07:19:18.308Z,21.18
2018-09-28T07:24:21.573Z,21.24
2018-09-28T07:29:24.868Z,21.29
2018-09-28T07:34:28.144Z,21.34
2018-09-28T07:39:31.431Z,21.39
2018-09-28T07:44:34.718Z,21.42
2018-09-28T07:49:37.983Z,21.44
2018-09-28T07:54:41.259Z,21.47
2018-09-28T07:59:44.541Z,21.51
2018-09-28T08:04:47.819Z,21.63
2018-09-28T08:09:51.076Z,21.72
2018-09-28T08:14:54.350Z,21.82
2018-09-28T08:19:57.664Z,21.88
2018-09-28T08:25:00.940Z,21.87
2018-09-28T08:30:04.296Z,21.94
2018-09-28T08:35:07.555Z,21.94
2018-09-28T08:40:10.840Z,21.92
2018-09-28T08:45:14.116Z,22.00
2018-09-28T08:50:17.381Z,22.13
2018-09-28T08:55:20.643Z,21.73
2018-09-28T09:00:24.004Z,21.81
2018-09-28T09:05:27.281Z,22.05
2018-09-28T09:10:30.541Z,22.14
2018-09-28T09:15:33.836Z,22.21
2018-09-28T09:20:37.099Z,22.22
2018-09-28T09:25:40.383Z,22.21
2018-09-28T09:30:43.639Z,22.34
2018-09-28T09:35:46.905Z,22.41
2018-09-28T09:40:50.177Z,22.31
2018-09-28T09:45:53.448Z,22.18
2018-09-28T09:50:56.711Z,22.28
2018-09-28T09:56:00.018Z,22.16
2018-09-28T10:01:05.995Z,22.17
2018-09-28T10:06:10.280Z,22.34
2018-09-28T10:11:13.552Z,22.38
2018-09-28T10:16:16.875Z,22.46
2018-09-28T10:21:20.326Z,22.41
2018-09-28T10:26:23.601Z,22.52
2018-09-28T10:31:26.940Z,22.52
2018-09-28T10:36:30.380Z,22.55
2018-09-28T10:41:33.844Z,22.38
2018-09-28T10:46:37.133Z,22.43
2018-09-28T10:51:40.471Z,22.57
2018-09-28T10:56:43.701Z,22.56
2018-09-28T11:01:46.987Z,22.37
2018-09-28T11:06:50.256Z,22.41
2018-09-28T11:11:53.524Z,22.41
2018-09-28T11:16:56.804Z,22.36
2018-09-28T11:22:00.261Z,22.35
2018-09-28T11:27:03.708Z,22.33
2018-09-28T11:32:11.650Z,22.34
2018-09-28T11:37:15.440Z,22.43
2018-09-28T11:42:18.700Z,22.60
2018-09-28T11:47:21.989Z,22.68
2018-09-28T11:52:25.384Z,22.54
2018-09-28T12:20:00.433Z,22.59
2018-09-28T12:25:03.785Z,22.50
2018-09-28T12:30:07.474Z,22.45
2018-09-28T12:35:10.749Z,22.48
2018-09-28T12:40:14.124Z,22.42
2018-09-28T12:45:17.583Z,22.58
2018-09-28T12:50:20.924Z,22.49
2018-09-28T12:55:25.074Z,22.49
2018-09-28T13:00:28.435Z,22.44
2018-09-28T13:05:31.630Z,22.43
2018-09-28T13:10:38.943Z,22.38
2018-09-28T13:15:42.280Z,22.70
2018-09-28T13:20:45.599Z,22.57
2018-09-28T13:25:48.843Z,22.50
2018-09-28T13:30:52.203Z,22.59
2018-09-28T13:35:55.477Z,22.57
2018-09-28T13:40:58.740Z,22.63
2018-09-28T13:46:02.223Z,22.59
2018-09-28T13:51:05.556Z,22.51
2018-09-28T13:56:08.844Z,22.60
2018-09-28T14:01:12.128Z,22.60
2018-09-28T14:06:15.410Z,22.56
2018-09-28T14:11:18.699Z,22.56
2018-09-28T14:16:21.989Z,22.45
2018-09-28T14:21:25.260Z,22.39
2018-09-28T14:26:28.553Z,22.37
2018-09-28T14:31:31.832Z,22.37
2018-09-28T14:36:35.107Z,22.38
2018-09-28T14:41:38.396Z,22.34
2018-09-28T14:46:41.738Z,22.43
2018-09-28T14:51:44.952Z,22.37
2018-09-28T14:56:48.383Z,22.35
2018-09-28T15:01:51.512Z,22.33
2018-09-28T15:06:54.861Z,22.34
2018-09-28T15:11:58.064Z,22.36
2018-09-28T15:17:01.329Z,22.38
2018-09-28T15:22:04.636Z,22.41
2018-09-28T15:27:07.909Z,22.37
2018-09-28T15:32:11.172Z,22.48
2018-09-28T15:37:14.445Z,22.47
2018-09-28T15:42:17.754Z,22.46
2018-09-28T15:47:21.033Z,22.57
2018-09-28T15:52:24.325Z,22.72
2018-09-28T15:57:27.603Z,22.70
2018-09-28T16:02:30.937Z,22.69
2018-09-28T16:07:34.409Z,22.83
2018-09-28T16:12:37.860Z,22.79
2018-09-28T16:17:41.183Z,22.88
2018-09-28T16:22:44.531Z,23.06
2018-09-28T16:27:47.796Z,23.01
2018-09-28T16:32:51.265Z,22.85
2018-09-28T16:37:54.540Z,22.79
2018-09-28T16:42:57.998Z,22.95
2018-09-28T16:48:01.745Z,22.80
2018-09-28T16:53:05.065Z,22.78
2018-09-28T16:58:08.352Z,22.77
2018-09-28T17:03:11.632Z,22.70
2018-09-28T17:08:14.892Z,22.71
2018-09-28T17:13:18.154Z,22.73
2018-09-28T17:18:21.524Z,22.67
2018-09-28T17:23:24.789Z,22.65
2018-09-28T17:28:28.114Z,22.75
2018-09-28T17:33:31.397Z,22.55
2018-09-28T17:38:34.663Z,22.81
2018-09-28T17:43:37.945Z,22.77
2018-09-28T17:48:41.253Z,22.68
2018-09-28T17:53:44.529Z,22.61
2018-09-28T17:58:47.816Z,22.59
2018-09-28T18:03:51.091Z,22.78
2018-09-28T18:08:54.355Z,23.07
2018-09-28T18:13:57.619Z,22.84
2018-09-28T18:19:00.885Z,22.80
2018-09-28T18:24:04.169Z,22.82
2018-09-28T18:29:07.457Z,22.79
2018-09-28T18:34:10.720Z,22.76
2018-09-28T18:39:14.030Z,22.77
2018-09-28T18:44:17.537Z,22.80
2018-09-28T18:49:20.801Z,22.80
2018-09-28T18:54:25.245Z,22.84
2018-09-28T18:59:28.531Z,22.80
2018-09-28T19:04:31.801Z,22.85
2018-09-28T19:09:37.175Z,22.84
2018-09-28T19:14:40.795Z,22.84
2018-09-28T19:19:44.081Z,22.86
2018-09-28T19:24:47.352Z,22.89
2018-09-28T19:29:50.676Z,22.89
2018-09-28T19:34:54.052Z,22.95
2018-09-28T19:39:57.312Z,22.93
2018-09-28T19:45:00.673Z,22.96
2018-09-28T19:50:04.459Z,22.93
2018-09-28T19:55:07.772Z,22.98
2018-09-28T20:00:11.094Z,23.01
2018-09-28T20:05:14.822Z,23.00
2018-09-28T20:10:18.106Z,22.90
2018-09-28T20:15:21.367Z,22.85
2018-09-28T20:20:25.264Z,22.96
2018-09-28T20:25:28.688Z,22.82
2018-09-28T20:30:32.908Z,22.79
2018-09-28T20:35:36.252Z,22.78
2018-09-28T20:40:39.659Z,22.74
2018-09-28T20:45:42.937Z,22.72
2018-09-28T20:50:46.212Z,22.80
2018-09-28T20:55:49.537Z,22.67
2018-09-28T21:00:52.958Z,22.67
2018-09-28T21:05:56.255Z,22.65
2018-09-28T21:11:00.220Z,22.62
2018-09-28T21:16:03.497Z,22.59
2018-09-28T21:21:07.263Z,22.59
2018-09-28T21:26:10.936Z,22.58
2018-09-28T21:31:14.334Z,22.58
2018-09-28T21:36:17.701Z,22.56
2018-09-28T21:41:21.087Z,22.55
2018-09-28T21:46:24.716Z,22.53
2018-09-28T21:51:28.612Z,22.52
2018-09-28T21:56:31.881Z,22.50
2018-09-28T22:01:35.180Z,22.49
2018-09-28T22:06:38.489Z,22.48
2018-09-28T22:11:41.813Z,22.45
2018-09-28T22:16:45.261Z,22.45
2018-09-28T22:21:48.925Z,22.42
2018-09-28T22:26:52.455Z,22.40
2018-09-28T22:31:55.841Z,22.38
2018-09-28T22:36:59.168Z,22.38
2018-09-28T22:42:02.777Z,22.37
2018-09-28T22:47:06.271Z,22.35
2018-09-28T22:52:09.695Z,22.35
2018-09-28T22:57:13.118Z,22.34
2018-09-28T23:02:16.417Z,22.37
2018-09-28T23:07:19.688Z,22.34
2018-09-28T23:12:23.064Z,22.32
2018-09-28T23:17:26.360Z,22.29
2018-09-28T23:22:29.624Z,22.29
2018-09-28T23:27:32.981Z,22.32
2018-09-28T23:32:36.360Z,22.28
2018-09-28T23:37:39.631Z,22.28
2018-09-28T23:42:42.908Z,22.28
2018-09-28T23:47:46.299Z,22.27
2018-09-28T23:52:49.513Z,22.26
2018-09-28T23:57:52.783Z,22.25
